sensor_id;sensor_type;location;lat;lon;timestamp;temperature;humidity
4207;DHT22;2117;47.972;7.830;2023-03-23T00:00:50;13.50;99.90
4207;DHT22;2117;47.972;7.830;2023-03-23T00:03:16;13.60;99.90
4207;DHT22;2117;47.972;7.830;2023-03-23T00:05:42;13.60;99.90
4207;DHT22;2117;47.972;7.830;2023-03-23T00:08:18;13.60;99.90
4207;DHT22;2117;47.972;7.830;2023-03-23T00:10:50;13.60;99.90
4207;DHT22;2117;47.972;7.830;2023-03-23T00:13:18;13.60;99.90
4207;DHT22;2117;47.972;7.830;2023-03-23T00:15:46;13.50;99.90
4207;DHT22;2117;47.972;7.830;2023-03-23T00:18:14;13.60;99.90
4207;DHT22;2117;47.972;7.830;2023-03-23T00:20:54;13.50;99.90
4207;DHT22;2117;47.972;7.830;2023-03-23T00:23:22;13.50;99.90
4207;DHT22;2117;47.972;7.830;2023-03-23T00:25:50;13.50;99.90
4207;DHT22;2117;47.972;7.830;2023-03-23T00:28:19;13.50;99.90
4207;DHT22;2117;47.972;7.830;2023-03-23T00:30:54;13.50;99.90
4207;DHT22;2117;47.972;7.830;2023-03-23T00:33:26;13.50;99.90
4207;DHT22;2117;47.972;7.830;2023-03-23T00:35:53;13.50;99.90
4207;DHT22;2117;47.972;7.830;2023-03-23T00:38:20;13.60;99.90
4207;DHT22;2117;47.972;7.830;2023-03-23T00:40:46;13.70;99.90
4207;DHT22;2117;47.972;7.830;2023-03-23T00:43:14;13.90;99.90
4207;DHT22;2117;47.972;7.830;2023-03-23T00:45:40;14.00;99.90
4207;DHT22;2117;47.972;7.830;2023-03-23T00:48:06;14.10;99.90
4207;DHT22;2117;47.972;7.830;2023-03-23T00:50:32;14.20;99.90
4207;DHT22;2117;47.972;7.830;2023-03-23T00:52:58;14.30;99.90
4207;DHT22;2117;47.972;7.830;2023-03-23T00:55:24;14.40;99.90
4207;DHT22;2117;47.972;7.830;2023-03-23T00:57:50;14.40;99.90
4207;DHT22;2117;47.972;7.830;2023-03-23T01:00:17;14.50;99.90
4207;DHT22;2117;47.972;7.830;2023-03-23T01:02:44;14.60;99.90
4207;DHT22;2117;47.972;7.830;2023-03-23T01:05:10;14.60;99.90
4207;DHT22;2117;47.972;7.830;2023-03-23T01:07:36;14.60;99.90
4207;DHT22;2117;47.972;7.830;2023-03-23T01:10:02;14.70;99.90
4207;DHT22;2117;47.972;7.830;2023-03-23T01:12:28;14.70;99.90
4207;DHT22;2117;47.972;7.830;2023-03-23T01:14:54;14.80;99.90
4207;DHT22;2117;47.972;7.830;2023-03-23T01:17:19;14.90;99.90
4207;DHT22;2117;47.972;7.830;2023-03-23T01:19:46;15.00;99.90
4207;DHT22;2117;47.972;7.830;2023-03-23T01:22:12;15.10;99.90
4207;DHT22;2117;47.972;7.830;2023-03-23T01:24:37;15.10;99.90
4207;DHT22;2117;47.972;7.830;2023-03-23T01:27:03;15.20;99.90
4207;DHT22;2117;47.972;7.830;2023-03-23T01:29:33;15.20;99.90
4207;DHT22;2117;47.972;7.830;2023-03-23T01:31:58;15.30;99.90
4207;DHT22;2117;47.972;7.830;2023-03-23T01:34:24;15.30;99.90
4207;DHT22;2117;47.972;7.830;2023-03-23T01:36:50;15.30;99.90
4207;DHT22;2117;47.972;7.830;2023-03-23T01:39:15;15.30;99.90
4207;DHT22;2117;47.972;7.830;2023-03-23T01:41:41;15.40;99.90
4207;DHT22;2117;47.972;7.830;2023-03-23T01:46:56;15.40;99.90
4207;DHT22;2117;47.972;7.830;2023-03-23T01:49:25;15.50;99.90
4207;DHT22;2117;47.972;7.830;2023-03-23T01:51:55;15.50;99.90
4207;DHT22;2117;47.972;7.830;2023-03-23T01:54:23;15.50;99.90
4207;DHT22;2117;47.972;7.830;2023-03-23T01:57:11;15.60;99.90
4207;DHT22;2117;47.972;7.830;2023-03-23T01:59:39;15.60;99.90
4207;DHT22;2117;47.972;7.830;2023-03-23T02:02:08;15.60;99.90
4207;DHT22;2117;47.972;7.830;2023-03-23T02:04:36;15.60;99.50
4207;DHT22;2117;47.972;7.830;2023-03-23T02:07:03;15.70;99.20
4207;DHT22;2117;47.972;7.830;2023-03-23T02:09:29;15.70;99.20
4207;DHT22;2117;47.972;7.830;2023-03-23T02:11:55;15.70;99.00
4207;DHT22;2117;47.972;7.830;2023-03-23T02:14:23;15.80;98.70
4207;DHT22;2117;47.972;7.830;2023-03-23T02:20:17;15.90;98.60
4207;DHT22;2117;47.972;7.830;2023-03-23T02:23:12;15.90;98.40
4207;DHT22;2117;47.972;7.830;2023-03-23T02:28:58;16.00;97.80
4207;DHT22;2117;47.972;7.830;2023-03-23T02:32:26;16.00;98.10
4207;DHT22;2117;47.972;7.830;2023-03-23T02:34:41;16.00;98.10
4207;DHT22;2117;47.972;7.830;2023-03-23T02:37:12;16.00;98.10
4207;DHT22;2117;47.972;7.830;2023-03-23T02:39:49;16.00;98.10
4207;DHT22;2117;47.972;7.830;2023-03-23T02:42:20;16.00;98.10
4207;DHT22;2117;47.972;7.830;2023-03-23T02:44:48;16.10;98.20
4207;DHT22;2117;47.972;7.830;2023-03-23T02:47:18;16.10;98.10
4207;DHT22;2117;47.972;7.830;2023-03-23T02:49:47;16.10;98.10
4207;DHT22;2117;47.972;7.830;2023-03-23T02:52:19;16.10;98.00
4207;DHT22;2117;47.972;7.830;2023-03-23T02:54:48;16.10;98.10
4207;DHT22;2117;47.972;7.830;2023-03-23T02:57:15;16.10;98.10
4207;DHT22;2117;47.972;7.830;2023-03-23T02:59:41;16.10;98.10
4207;DHT22;2117;47.972;7.830;2023-03-23T03:02:11;16.10;98.10
4207;DHT22;2117;47.972;7.830;2023-03-23T03:04:39;16.10;98.10
4207;DHT22;2117;47.972;7.830;2023-03-23T03:09:42;16.10;98.10
4207;DHT22;2117;47.972;7.830;2023-03-23T03:17:36;16.10;97.70
4207;DHT22;2117;47.972;7.830;2023-03-23T03:20:07;16.10;97.20
4207;DHT22;2117;47.972;7.830;2023-03-23T03:22:38;16.10;96.90
4207;DHT22;2117;47.972;7.830;2023-03-23T03:25:07;16.20;97.10
4207;DHT22;2117;47.972;7.830;2023-03-23T03:27:33;16.20;97.00
4207;DHT22;2117;47.972;7.830;2023-03-23T03:30:01;16.20;97.20
4207;DHT22;2117;47.972;7.830;2023-03-23T03:32:38;16.30;97.00
4207;DHT22;2117;47.972;7.830;2023-03-23T03:35:06;16.30;97.00
4207;DHT22;2117;47.972;7.830;2023-03-23T03:37:36;16.30;97.00
4207;DHT22;2117;47.972;7.830;2023-03-23T03:40:05;16.30;97.00
4207;DHT22;2117;47.972;7.830;2023-03-23T03:42:39;16.30;96.90
4207;DHT22;2117;47.972;7.830;2023-03-23T03:45:06;16.30;96.90
4207;DHT22;2117;47.972;7.830;2023-03-23T03:47:33;16.30;96.70
4207;DHT22;2117;47.972;7.830;2023-03-23T03:49:59;16.30;96.70
4207;DHT22;2117;47.972;7.830;2023-03-23T03:52:24;16.30;96.70
4207;DHT22;2117;47.972;7.830;2023-03-23T03:54:50;16.40;96.80
4207;DHT22;2117;47.972;7.830;2023-03-23T03:57:16;16.30;96.90
4207;DHT22;2117;47.972;7.830;2023-03-23T03:59:43;16.30;96.80
4207;DHT22;2117;47.972;7.830;2023-03-23T04:02:09;16.30;96.90
4207;DHT22;2117;47.972;7.830;2023-03-23T04:04:35;16.30;96.80
4207;DHT22;2117;47.972;7.830;2023-03-23T04:07:00;16.30;96.60
4207;DHT22;2117;47.972;7.830;2023-03-23T04:09:28;16.30;96.50
4207;DHT22;2117;47.972;7.830;2023-03-23T04:11:53;16.30;96.60
4207;DHT22;2117;47.972;7.830;2023-03-23T04:14:19;16.30;96.70
4207;DHT22;2117;47.972;7.830;2023-03-23T04:16:44;16.30;96.40
4207;DHT22;2117;47.972;7.830;2023-03-23T04:19:10;16.40;96.30
4207;DHT22;2117;47.972;7.830;2023-03-23T04:21:37;16.40;96.40
4207;DHT22;2117;47.972;7.830;2023-03-23T04:24:03;16.40;96.60
4207;DHT22;2117;47.972;7.830;2023-03-23T04:26:29;16.50;96.20
4207;DHT22;2117;47.972;7.830;2023-03-23T04:28:55;16.50;96.20
4207;DHT22;2117;47.972;7.830;2023-03-23T04:31:22;16.50;96.50
4207;DHT22;2117;47.972;7.830;2023-03-23T04:33:50;16.50;96.10
4207;DHT22;2117;47.972;7.830;2023-03-23T04:36:18;16.60;96.20
4207;DHT22;2117;47.972;7.830;2023-03-23T04:38:43;16.50;96.20
4207;DHT22;2117;47.972;7.830;2023-03-23T04:41:09;16.50;96.30
4207;DHT22;2117;47.972;7.830;2023-03-23T04:43:35;16.50;96.40
4207;DHT22;2117;47.972;7.830;2023-03-23T04:46:07;16.50;96.20
4207;DHT22;2117;47.972;7.830;2023-03-23T04:48:36;16.50;96.00
4207;DHT22;2117;47.972;7.830;2023-03-23T04:51:05;16.60;96.40
4207;DHT22;2117;47.972;7.830;2023-03-23T04:53:31;16.50;96.50
4207;DHT22;2117;47.972;7.830;2023-03-23T04:55:57;16.50;96.50
4207;DHT22;2117;47.972;7.830;2023-03-23T04:58:25;16.50;96.20
4207;DHT22;2117;47.972;7.830;2023-03-23T05:00:53;16.50;96.50
4207;DHT22;2117;47.972;7.830;2023-03-23T05:03:19;16.50;96.60
4207;DHT22;2117;47.972;7.830;2023-03-23T05:05:46;16.50;96.70
4207;DHT22;2117;47.972;7.830;2023-03-23T05:08:20;16.40;96.70
4207;DHT22;2117;47.972;7.830;2023-03-23T05:10:52;16.40;97.00
4207;DHT22;2117;47.972;7.830;2023-03-23T05:13:19;16.40;97.00
4207;DHT22;2117;47.972;7.830;2023-03-23T05:15:44;16.40;97.00
4207;DHT22;2117;47.972;7.830;2023-03-23T05:18:10;16.40;97.20
4207;DHT22;2117;47.972;7.830;2023-03-23T05:20:36;16.30;97.10
4207;DHT22;2117;47.972;7.830;2023-03-23T05:23:02;16.30;97.30
4207;DHT22;2117;47.972;7.830;2023-03-23T05:25:28;16.30;97.40
4207;DHT22;2117;47.972;7.830;2023-03-23T05:27:53;16.30;97.60
4207;DHT22;2117;47.972;7.830;2023-03-23T05:30:20;16.20;97.60
4207;DHT22;2117;47.972;7.830;2023-03-23T05:32:47;16.20;97.70
4207;DHT22;2117;47.972;7.830;2023-03-23T05:35:16;16.10;97.70
4207;DHT22;2117;47.972;7.830;2023-03-23T05:37:42;16.10;97.80
4207;DHT22;2117;47.972;7.830;2023-03-23T05:40:09;16.10;98.10
4207;DHT22;2117;47.972;7.830;2023-03-23T05:42:37;16.10;98.00
4207;DHT22;2117;47.972;7.830;2023-03-23T05:45:04;16.10;98.10
4207;DHT22;2117;47.972;7.830;2023-03-23T05:47:30;16.00;98.30
4207;DHT22;2117;47.972;7.830;2023-03-23T05:49:56;16.00;98.40
4207;DHT22;2117;47.972;7.830;2023-03-23T05:52:21;16.00;98.60
4207;DHT22;2117;47.972;7.830;2023-03-23T05:54:49;16.00;98.60
4207;DHT22;2117;47.972;7.830;2023-03-23T05:57:15;15.90;98.70
4207;DHT22;2117;47.972;7.830;2023-03-23T05:59:40;15.90;98.80
4207;DHT22;2117;47.972;7.830;2023-03-23T06:02:06;15.90;99.10
4207;DHT22;2117;47.972;7.830;2023-03-23T06:04:32;15.90;99.00
4207;DHT22;2117;47.972;7.830;2023-03-23T06:07:00;15.90;99.10
4207;DHT22;2117;47.972;7.830;2023-03-23T06:09:26;15.80;99.00
4207;DHT22;2117;47.972;7.830;2023-03-23T06:11:51;15.80;99.20
4207;DHT22;2117;47.972;7.830;2023-03-23T06:14:17;15.80;99.30
4207;DHT22;2117;47.972;7.830;2023-03-23T06:16:43;15.80;99.70
4207;DHT22;2117;47.972;7.830;2023-03-23T06:19:08;15.70;99.90
4207;DHT22;2117;47.972;7.830;2023-03-23T06:21:34;15.70;99.90
4207;DHT22;2117;47.972;7.830;2023-03-23T06:24:00;15.70;99.90
4207;DHT22;2117;47.972;7.830;2023-03-23T06:26:30;15.60;99.90
4207;DHT22;2117;47.972;7.830;2023-03-23T06:28:56;15.50;99.90
4207;DHT22;2117;47.972;7.830;2023-03-23T06:31:23;15.50;99.90
4207;DHT22;2117;47.972;7.830;2023-03-23T06:33:49;15.50;99.90
4207;DHT22;2117;47.972;7.830;2023-03-23T06:36:15;15.50;99.90
4207;DHT22;2117;47.972;7.830;2023-03-23T06:38:42;15.50;99.90
4207;DHT22;2117;47.972;7.830;2023-03-23T06:41:07;15.40;99.90
4207;DHT22;2117;47.972;7.830;2023-03-23T06:43:34;15.40;99.90
4207;DHT22;2117;47.972;7.830;2023-03-23T06:46:01;15.40;99.90
4207;DHT22;2117;47.972;7.830;2023-03-23T06:48:27;15.40;99.90
4207;DHT22;2117;47.972;7.830;2023-03-23T06:50:53;15.50;99.90
4207;DHT22;2117;47.972;7.830;2023-03-23T06:53:18;15.50;99.90
4207;DHT22;2117;47.972;7.830;2023-03-23T06:55:46;15.50;99.90
4207;DHT22;2117;47.972;7.830;2023-03-23T06:58:12;15.50;99.90
4207;DHT22;2117;47.972;7.830;2023-03-23T07:00:38;15.50;99.90
4207;DHT22;2117;47.972;7.830;2023-03-23T07:03:04;15.60;99.90
4207;DHT22;2117;47.972;7.830;2023-03-23T07:05:30;15.50;99.90
4207;DHT22;2117;47.972;7.830;2023-03-23T07:07:55;15.50;99.90
4207;DHT22;2117;47.972;7.830;2023-03-23T07:10:21;15.50;99.90
4207;DHT22;2117;47.972;7.830;2023-03-23T07:12:47;15.50;99.90
4207;DHT22;2117;47.972;7.830;2023-03-23T07:15:12;15.50;99.90
4207;DHT22;2117;47.972;7.830;2023-03-23T07:17:39;15.50;99.90
4207;DHT22;2117;47.972;7.830;2023-03-23T07:20:06;15.50;99.90
4207;DHT22;2117;47.972;7.830;2023-03-23T07:22:32;15.40;99.90
4207;DHT22;2117;47.972;7.830;2023-03-23T07:24:57;15.50;99.90
4207;DHT22;2117;47.972;7.830;2023-03-23T07:27:23;15.50;99.90
4207;DHT22;2117;47.972;7.830;2023-03-23T07:29:50;15.50;99.90
4207;DHT22;2117;47.972;7.830;2023-03-23T07:32:16;15.50;99.90
4207;DHT22;2117;47.972;7.830;2023-03-23T07:34:41;15.40;99.90
4207;DHT22;2117;47.972;7.830;2023-03-23T07:37:08;15.30;99.90
4207;DHT22;2117;47.972;7.830;2023-03-23T07:39:34;15.20;99.90
4207;DHT22;2117;47.972;7.830;2023-03-23T07:42:00;15.00;99.90
4207;DHT22;2117;47.972;7.830;2023-03-23T07:44:25;14.90;99.90
4207;DHT22;2117;47.972;7.830;2023-03-23T07:46:51;14.80;99.90
4207;DHT22;2117;47.972;7.830;2023-03-23T07:49:18;14.70;99.90
4207;DHT22;2117;47.972;7.830;2023-03-23T07:51:45;14.60;99.90
4207;DHT22;2117;47.972;7.830;2023-03-23T07:54:10;14.60;99.90
4207;DHT22;2117;47.972;7.830;2023-03-23T07:56:37;14.50;99.90
4207;DHT22;2117;47.972;7.830;2023-03-23T07:59:06;14.50;99.90
4207;DHT22;2117;47.972;7.830;2023-03-23T08:01:32;14.40;99.90
4207;DHT22;2117;47.972;7.830;2023-03-23T08:03:58;14.30;99.90
4207;DHT22;2117;47.972;7.830;2023-03-23T08:06:25;14.20;99.90
4207;DHT22;2117;47.972;7.830;2023-03-23T08:08:51;14.10;99.90
4207;DHT22;2117;47.972;7.830;2023-03-23T08:11:17;14.10;99.90
4207;DHT22;2117;47.972;7.830;2023-03-23T08:13:44;14.00;99.90
4207;DHT22;2117;47.972;7.830;2023-03-23T08:16:10;14.00;99.90
4207;DHT22;2117;47.972;7.830;2023-03-23T08:18:36;14.00;99.90
4207;DHT22;2117;47.972;7.830;2023-03-23T08:21:04;13.90;99.90
4207;DHT22;2117;47.972;7.830;2023-03-23T08:23:33;13.90;99.90
4207;DHT22;2117;47.972;7.830;2023-03-23T08:25:59;13.90;99.90
4207;DHT22;2117;47.972;7.830;2023-03-23T08:28:26;13.90;99.90
4207;DHT22;2117;47.972;7.830;2023-03-23T08:30:51;13.80;99.90
4207;DHT22;2117;47.972;7.830;2023-03-23T08:33:17;13.80;99.90
4207;DHT22;2117;47.972;7.830;2023-03-23T08:35:42;13.80;99.90
4207;DHT22;2117;47.972;7.830;2023-03-23T08:38:12;13.80;99.90
4207;DHT22;2117;47.972;7.830;2023-03-23T08:40:39;13.80;99.90
4207;DHT22;2117;47.972;7.830;2023-03-23T08:43:05;13.80;99.90
4207;DHT22;2117;47.972;7.830;2023-03-23T08:45:31;13.80;99.90
4207;DHT22;2117;47.972;7.830;2023-03-23T08:47:57;13.90;99.90
4207;DHT22;2117;47.972;7.830;2023-03-23T08:50:27;13.80;99.90
4207;DHT22;2117;47.972;7.830;2023-03-23T08:52:53;13.80;99.90
4207;DHT22;2117;47.972;7.830;2023-03-23T08:55:20;13.80;99.90
4207;DHT22;2117;47.972;7.830;2023-03-23T08:57:47;13.90;99.90
4207;DHT22;2117;47.972;7.830;2023-03-23T09:00:15;13.90;99.90
4207;DHT22;2117;47.972;7.830;2023-03-23T09:02:49;14.00;99.90
4207;DHT22;2117;47.972;7.830;2023-03-23T09:05:16;14.00;99.90
4207;DHT22;2117;47.972;7.830;2023-03-23T09:07:46;14.00;99.90
4207;DHT22;2117;47.972;7.830;2023-03-23T09:10:12;14.10;99.90
4207;DHT22;2117;47.972;7.830;2023-03-23T09:12:40;14.20;99.90
4207;DHT22;2117;47.972;7.830;2023-03-23T09:15:07;14.20;99.90
4207;DHT22;2117;47.972;7.830;2023-03-23T09:17:35;14.30;99.90
4207;DHT22;2117;47.972;7.830;2023-03-23T09:20:01;14.40;99.90
4207;DHT22;2117;47.972;7.830;2023-03-23T09:22:29;14.60;99.90
4207;DHT22;2117;47.972;7.830;2023-03-23T09:24:55;14.60;99.90
4207;DHT22;2117;47.972;7.830;2023-03-23T09:27:20;14.70;99.90
4207;DHT22;2117;47.972;7.830;2023-03-23T09:29:46;14.70;99.90
4207;DHT22;2117;47.972;7.830;2023-03-23T09:32:14;14.80;99.90
4207;DHT22;2117;47.972;7.830;2023-03-23T09:34:40;14.90;99.90
4207;DHT22;2117;47.972;7.830;2023-03-23T09:37:06;15.00;99.90
4207;DHT22;2117;47.972;7.830;2023-03-23T09:39:32;15.10;99.90
4207;DHT22;2117;47.972;7.830;2023-03-23T09:42:28;15.20;99.90
4207;DHT22;2117;47.972;7.830;2023-03-23T09:45:23;15.30;99.90
4207;DHT22;2117;47.972;7.830;2023-03-23T09:50:46;15.40;99.90
4207;DHT22;2117;47.972;7.830;2023-03-23T09:53:23;15.60;99.90
4207;DHT22;2117;47.972;7.830;2023-03-23T09:55:50;15.70;99.90
4207;DHT22;2117;47.972;7.830;2023-03-23T09:59:07;15.80;99.90
4207;DHT22;2117;47.972;7.830;2023-03-23T10:01:12;15.80;99.90
4207;DHT22;2117;47.972;7.830;2023-03-23T10:03:42;15.90;99.90
4207;DHT22;2117;47.972;7.830;2023-03-23T10:06:14;16.00;99.90
4207;DHT22;2117;47.972;7.830;2023-03-23T10:08:51;16.00;99.90
4207;DHT22;2117;47.972;7.830;2023-03-23T10:17:09;16.10;99.90
4207;DHT22;2117;47.972;7.830;2023-03-23T10:22:32;16.20;99.90
4207;DHT22;2117;47.972;7.830;2023-03-23T10:30:36;16.30;99.90
4207;DHT22;2117;47.972;7.830;2023-03-23T10:35:39;16.50;99.90
4207;DHT22;2117;47.972;7.830;2023-03-23T10:38:17;16.60;99.90
4207;DHT22;2117;47.972;7.830;2023-03-23T10:40:56;16.70;99.90
4207;DHT22;2117;47.972;7.830;2023-03-23T10:43:24;16.80;99.90
4207;DHT22;2117;47.972;7.830;2023-03-23T10:45:57;16.80;99.90
4207;DHT22;2117;47.972;7.830;2023-03-23T10:48:30;16.90;99.90
4207;DHT22;2117;47.972;7.830;2023-03-23T10:51:00;17.00;99.90
4207;DHT22;2117;47.972;7.830;2023-03-23T10:53:36;17.00;99.90
4207;DHT22;2117;47.972;7.830;2023-03-23T10:56:04;17.10;99.90
4207;DHT22;2117;47.972;7.830;2023-03-23T10:58:31;17.10;99.90
4207;DHT22;2117;47.972;7.830;2023-03-23T11:00:59;17.10;99.90
4207;DHT22;2117;47.972;7.830;2023-03-23T11:06:11;17.20;99.90
4207;DHT22;2117;47.972;7.830;2023-03-23T11:09:00;17.20;99.90
4207;DHT22;2117;47.972;7.830;2023-03-23T11:11:31;17.30;99.90
4207;DHT22;2117;47.972;7.830;2023-03-23T11:14:02;17.30;99.90
4207;DHT22;2117;47.972;7.830;2023-03-23T11:16:30;17.30;99.90
4207;DHT22;2117;47.972;7.830;2023-03-23T11:19:11;17.30;99.90
4207;DHT22;2117;47.972;7.830;2023-03-23T11:21:38;17.30;99.90
4207;DHT22;2117;47.972;7.830;2023-03-23T11:24:05;17.40;99.90
4207;DHT22;2117;47.972;7.830;2023-03-23T11:26:33;17.40;99.90
4207;DHT22;2117;47.972;7.830;2023-03-23T11:29:13;17.40;99.90
4207;DHT22;2117;47.972;7.830;2023-03-23T11:31:42;17.50;99.90
4207;DHT22;2117;47.972;7.830;2023-03-23T11:36:53;17.50;99.90
4207;DHT22;2117;47.972;7.830;2023-03-23T11:39:26;17.50;99.90
4207;DHT22;2117;47.972;7.830;2023-03-23T11:41:53;17.50;99.90
4207;DHT22;2117;47.972;7.830;2023-03-23T11:44:22;17.60;99.90
4207;DHT22;2117;47.972;7.830;2023-03-23T11:47:10;17.70;99.90
4207;DHT22;2117;47.972;7.830;2023-03-23T11:55:13;17.80;99.90
4207;DHT22;2117;47.972;7.830;2023-03-23T11:57:40;17.90;99.90
4207;DHT22;2117;47.972;7.830;2023-03-23T12:00:24;17.90;99.90
4207;DHT22;2117;47.972;7.830;2023-03-23T12:03:09;18.00;99.90
4207;DHT22;2117;47.972;7.830;2023-03-23T12:05:59;18.00;99.90
4207;DHT22;2117;47.972;7.830;2023-03-23T12:11:06;18.00;99.90
4207;DHT22;2117;47.972;7.830;2023-03-23T12:16:41;18.30;99.90
4207;DHT22;2117;47.972;7.830;2023-03-23T12:19:36;18.30;99.90
4207;DHT22;2117;47.972;7.830;2023-03-23T12:24:58;18.30;99.90
4207;DHT22;2117;47.972;7.830;2023-03-23T12:30:20;18.30;99.90
4207;DHT22;2117;47.972;7.830;2023-03-23T12:33:09;18.20;99.90
4207;DHT22;2117;47.972;7.830;2023-03-23T12:35:40;18.20;99.90
4207;DHT22;2117;47.972;7.830;2023-03-23T12:39:08;18.20;99.90
4207;DHT22;2117;47.972;7.830;2023-03-23T12:41:15;18.10;99.90
4207;DHT22;2117;47.972;7.830;2023-03-23T12:44:09;18.00;99.90
4207;DHT22;2117;47.972;7.830;2023-03-23T12:46:54;18.00;99.90
4207;DHT22;2117;47.972;7.830;2023-03-23T12:49:39;18.00;99.90
4207;DHT22;2117;47.972;7.830;2023-03-23T13:02:47;17.60;99.90
4207;DHT22;2117;47.972;7.830;2023-03-23T13:08:01;17.60;99.90
4207;DHT22;2117;47.972;7.830;2023-03-23T13:10:39;17.50;99.90
4207;DHT22;2117;47.972;7.830;2023-03-23T13:13:13;17.40;99.90
4207;DHT22;2117;47.972;7.830;2023-03-23T13:21:32;17.30;99.90
4207;DHT22;2117;47.972;7.830;2023-03-23T13:24:08;17.30;99.90
4207;DHT22;2117;47.972;7.830;2023-03-23T13:26:40;17.40;99.90
4207;DHT22;2117;47.972;7.830;2023-03-23T13:29:17;17.30;99.90
4207;DHT22;2117;47.972;7.830;2023-03-23T13:31:47;17.30;99.90
4207;DHT22;2117;47.972;7.830;2023-03-23T13:34:22;17.30;99.90
4207;DHT22;2117;47.972;7.830;2023-03-23T13:37:06;17.30;99.90
4207;DHT22;2117;47.972;7.830;2023-03-23T13:39:37;17.30;99.90
4207;DHT22;2117;47.972;7.830;2023-03-23T13:42:17;17.40;99.90
4207;DHT22;2117;47.972;7.830;2023-03-23T13:50:00;17.40;99.90
4207;DHT22;2117;47.972;7.830;2023-03-23T14:06:01;17.50;99.90
4207;DHT22;2117;47.972;7.830;2023-03-23T14:11:16;17.40;99.90
4207;DHT22;2117;47.972;7.830;2023-03-23T14:16:24;17.20;99.90
4207;DHT22;2117;47.972;7.830;2023-03-23T14:18:57;17.20;99.90
4207;DHT22;2117;47.972;7.830;2023-03-23T14:21:34;17.20;99.90
4207;DHT22;2117;47.972;7.830;2023-03-23T14:24:02;17.20;99.90
4207;DHT22;2117;47.972;7.830;2023-03-23T14:26:28;17.10;99.90
4207;DHT22;2117;47.972;7.830;2023-03-23T14:28:53;17.10;99.90
4207;DHT22;2117;47.972;7.830;2023-03-23T14:31:22;17.00;99.90
4207;DHT22;2117;47.972;7.830;2023-03-23T14:33:49;17.00;99.90
4207;DHT22;2117;47.972;7.830;2023-03-23T14:36:28;17.00;99.90
4207;DHT22;2117;47.972;7.830;2023-03-23T14:41:38;16.90;99.90
4207;DHT22;2117;47.972;7.830;2023-03-23T14:44:07;16.90;99.90
4207;DHT22;2117;47.972;7.830;2023-03-23T14:46:34;16.90;99.90
4207;DHT22;2117;47.972;7.830;2023-03-23T14:49:02;16.90;99.90
4207;DHT22;2117;47.972;7.830;2023-03-23T14:51:29;16.90;99.90
4207;DHT22;2117;47.972;7.830;2023-03-23T14:53:55;17.00;99.90
4207;DHT22;2117;47.972;7.830;2023-03-23T14:56:22;16.90;99.90
4207;DHT22;2117;47.972;7.830;2023-03-23T14:58:52;16.90;99.90
4207;DHT22;2117;47.972;7.830;2023-03-23T15:01:27;16.90;99.90
4207;DHT22;2117;47.972;7.830;2023-03-23T15:04:29;17.00;99.90
4207;DHT22;2117;47.972;7.830;2023-03-23T15:07:03;16.90;99.90
4207;DHT22;2117;47.972;7.830;2023-03-23T15:09:29;16.90;99.90
4207;DHT22;2117;47.972;7.830;2023-03-23T15:12:01;16.90;99.90
4207;DHT22;2117;47.972;7.830;2023-03-23T15:14:47;17.00;99.90
4207;DHT22;2117;47.972;7.830;2023-03-23T15:17:34;17.00;99.90
4207;DHT22;2117;47.972;7.830;2023-03-23T15:20:09;17.10;99.90
4207;DHT22;2117;47.972;7.830;2023-03-23T15:22:35;17.10;99.90
4207;DHT22;2117;47.972;7.830;2023-03-23T15:27:34;17.10;99.90
4207;DHT22;2117;47.972;7.830;2023-03-23T15:32:59;17.20;99.90
4207;DHT22;2117;47.972;7.830;2023-03-23T15:35:26;17.20;99.90
4207;DHT22;2117;47.972;7.830;2023-03-23T15:37:57;17.20;99.90
4207;DHT22;2117;47.972;7.830;2023-03-23T15:40:25;17.20;99.90
4207;DHT22;2117;47.972;7.830;2023-03-23T15:45:52;17.20;99.90
4207;DHT22;2117;47.972;7.830;2023-03-23T15:48:18;17.10;99.90
4207;DHT22;2117;47.972;7.830;2023-03-23T15:50:46;17.20;99.90
4207;DHT22;2117;47.972;7.830;2023-03-23T15:53:23;17.20;99.90
4207;DHT22;2117;47.972;7.830;2023-03-23T15:55:49;17.20;99.90
4207;DHT22;2117;47.972;7.830;2023-03-23T15:58:14;17.20;99.90
4207;DHT22;2117;47.972;7.830;2023-03-23T16:00:41;17.20;99.90
4207;DHT22;2117;47.972;7.830;2023-03-23T16:03:11;17.20;99.90
4207;DHT22;2117;47.972;7.830;2023-03-23T16:05:38;17.30;99.90
4207;DHT22;2117;47.972;7.830;2023-03-23T16:08:04;17.50;99.90
4207;DHT22;2117;47.972;7.830;2023-03-23T16:10:29;17.60;99.90
4207;DHT22;2117;47.972;7.830;2023-03-23T16:12:55;17.70;99.90
4207;DHT22;2117;47.972;7.830;2023-03-23T16:15:21;17.80;99.90
4207;DHT22;2117;47.972;7.830;2023-03-23T16:17:47;17.90;99.90
4207;DHT22;2117;47.972;7.830;2023-03-23T16:20:15;17.90;99.90
4207;DHT22;2117;47.972;7.830;2023-03-23T16:22:40;18.00;99.90
4207;DHT22;2117;47.972;7.830;2023-03-23T16:25:07;18.00;99.90
4207;DHT22;2117;47.972;7.830;2023-03-23T16:27:33;17.80;99.90
4207;DHT22;2117;47.972;7.830;2023-03-23T16:29:58;17.80;99.90
4207;DHT22;2117;47.972;7.830;2023-03-23T16:32:25;17.70;99.80
4207;DHT22;2117;47.972;7.830;2023-03-23T16:34:51;17.60;99.90
4207;DHT22;2117;47.972;7.830;2023-03-23T16:37:17;17.50;99.90
4207;DHT22;2117;47.972;7.830;2023-03-23T16:39:42;17.50;99.90
4207;DHT22;2117;47.972;7.830;2023-03-23T16:42:08;17.40;99.90
4207;DHT22;2117;47.972;7.830;2023-03-23T16:44:33;17.30;99.90
4207;DHT22;2117;47.972;7.830;2023-03-23T16:46:59;17.30;99.90
4207;DHT22;2117;47.972;7.830;2023-03-23T16:49:24;17.30;99.90
4207;DHT22;2117;47.972;7.830;2023-03-23T16:51:50;17.30;99.90
4207;DHT22;2117;47.972;7.830;2023-03-23T16:54:16;17.20;99.90
4207;DHT22;2117;47.972;7.830;2023-03-23T16:56:41;17.20;99.90
4207;DHT22;2117;47.972;7.830;2023-03-23T16:59:11;17.10;99.90
4207;DHT22;2117;47.972;7.830;2023-03-23T17:01:37;17.10;99.90
4207;DHT22;2117;47.972;7.830;2023-03-23T17:04:03;17.10;99.90
4207;DHT22;2117;47.972;7.830;2023-03-23T17:06:29;17.10;99.90
4207;DHT22;2117;47.972;7.830;2023-03-23T17:08:54;17.10;99.90
4207;DHT22;2117;47.972;7.830;2023-03-23T17:11:20;17.10;99.90
4207;DHT22;2117;47.972;7.830;2023-03-23T17:13:45;17.10;99.90
4207;DHT22;2117;47.972;7.830;2023-03-23T17:16:11;17.10;99.90
4207;DHT22;2117;47.972;7.830;2023-03-23T17:18:37;17.10;99.90
4207;DHT22;2117;47.972;7.830;2023-03-23T17:21:02;17.00;99.90
4207;DHT22;2117;47.972;7.830;2023-03-23T17:23:28;17.00;99.90
4207;DHT22;2117;47.972;7.830;2023-03-23T17:25:53;17.00;99.90
4207;DHT22;2117;47.972;7.830;2023-03-23T17:28:20;17.00;99.90
4207;DHT22;2117;47.972;7.830;2023-03-23T17:30:45;17.00;99.90
4207;DHT22;2117;47.972;7.830;2023-03-23T17:33:11;17.00;99.90
4207;DHT22;2117;47.972;7.830;2023-03-23T17:35:37;17.00;99.90
4207;DHT22;2117;47.972;7.830;2023-03-23T17:38:03;17.00;99.90
4207;DHT22;2117;47.972;7.830;2023-03-23T17:40:28;17.00;99.90
4207;DHT22;2117;47.972;7.830;2023-03-23T17:42:54;17.00;99.90
4207;DHT22;2117;47.972;7.830;2023-03-23T17:45:19;16.90;99.90
4207;DHT22;2117;47.972;7.830;2023-03-23T17:47:45;16.90;99.90
4207;DHT22;2117;47.972;7.830;2023-03-23T17:50:11;16.90;99.90
4207;DHT22;2117;47.972;7.830;2023-03-23T17:52:37;16.90;99.90
4207;DHT22;2117;47.972;7.830;2023-03-23T17:55:03;16.90;99.90
4207;DHT22;2117;47.972;7.830;2023-03-23T17:57:29;16.90;99.90
4207;DHT22;2117;47.972;7.830;2023-03-23T17:59:54;16.90;99.90
4207;DHT22;2117;47.972;7.830;2023-03-23T18:02:20;16.90;99.90
4207;DHT22;2117;47.972;7.830;2023-03-23T18:04:46;16.90;99.90
4207;DHT22;2117;47.972;7.830;2023-03-23T18:07:12;16.90;99.80